Terminal Aerodrome Forecast
Issued by NWS Mt. Holly, NJ

Home | Current Version | Previous Version | Text Only | Print | Product List | Glossary On
Versions: 1 2 3 4 5 6 7 8 9 10 11 12 13 14 15 16 17 18 19 20 21 22
000
FTUS41 KPHI 220800 AAA
TAFRDG
TAF AMD
KRDG 220827Z 2208/2306 03007KT 6SM -RA BKN015
     FM221000 05007KT 6SM -RA BKN020
     FM221200 01009KT 4SM -RA BR SCT008 OVC012
     FM221500 36012G20KT 5SM -RA BR BKN020
     FM222300 34013KT P6SM -SHRA OVC050=

USA.gov is the U.S. government's official web portal to all federal, state and local government web resources and services.